createdAt,value
2018-06-19T00:00:35.860Z,20.70
2018-06-19T00:03:04.578Z,18.00
2018-06-19T00:05:32.576Z,17.50
2018-06-19T00:08:02.133Z,21.13
2018-06-19T00:10:30.614Z,18.97
2018-06-19T00:12:58.616Z,16.93
2018-06-19T00:15:26.865Z,17.37
2018-06-19T00:18:00.042Z,14.77
2018-06-19T00:20:28.041Z,18.23
2018-06-19T00:22:56.059Z,17.33
2018-06-19T00:25:24.121Z,15.70
2018-06-19T00:27:52.127Z,19.93
2018-06-19T00:30:20.292Z,15.83
2018-06-19T00:32:48.378Z,22.67
2018-06-19T00:35:16.400Z,21.77
2018-06-19T00:37:44.470Z,20.60
2018-06-19T00:40:12.476Z,23.37
2018-06-19T00:42:40.506Z,17.03
2018-06-19T00:45:08.502Z,23.90
2018-06-19T00:47:36.516Z,27.90
2018-06-19T00:50:04.513Z,21.20
2018-06-19T00:52:32.594Z,19.60
2018-06-19T00:55:00.598Z,17.33
2018-06-19T00:57:28.709Z,19.43
2018-06-19T00:59:56.697Z,21.63
2018-06-19T01:02:24.732Z,27.63
2018-06-19T01:04:52.738Z,21.70
2018-06-19T01:07:20.744Z,24.70
2018-06-19T01:09:48.740Z,20.47
2018-06-19T01:12:16.736Z,22.43
2018-06-19T01:14:44.746Z,23.70
2018-06-19T01:17:12.753Z,23.70
2018-06-19T01:19:40.745Z,27.53
2018-06-19T01:22:08.782Z,23.10
2018-06-19T01:24:36.760Z,34.80
2018-06-19T01:27:04.785Z,25.23
2018-06-19T01:29:33.687Z,31.93
2018-06-19T01:32:01.706Z,26.80
2018-06-19T01:34:29.717Z,27.50
2018-06-19T01:36:57.776Z,26.93
2018-06-19T01:39:25.844Z,29.30
2018-06-19T01:41:53.845Z,24.87
2018-06-19T01:44:21.900Z,31.53
2018-06-19T01:46:49.901Z,27.77
2018-06-19T01:49:17.916Z,35.37
2018-06-19T01:51:45.944Z,25.50
2018-06-19T01:54:14.365Z,28.80
2018-06-19T01:56:42.352Z,37.80
2018-06-19T01:59:10.381Z,28.53
2018-06-19T02:01:38.399Z,28.83
2018-06-19T02:04:06.436Z,33.07
2018-06-19T02:06:34.445Z,34.37
2018-06-19T02:09:02.466Z,29.20
2018-06-19T02:11:30.479Z,35.57
2018-06-19T02:13:58.468Z,34.20
2018-06-19T02:16:26.969Z,32.10
2018-06-19T02:18:54.099Z,34.70
2018-06-19T02:21:23.008Z,32.33
2018-06-19T02:23:51.025Z,33.30
2018-06-19T02:26:19.021Z,33.67
2018-06-19T02:28:47.080Z,36.63
2018-06-19T02:31:15.058Z,39.33
2018-06-19T02:33:43.060Z,33.33
2018-06-19T02:36:11.045Z,38.13
2018-06-19T02:38:39.037Z,29.40
2018-06-19T02:41:07.032Z,33.30
2018-06-19T02:43:35.053Z,27.37
2018-06-19T02:46:03.085Z,26.80
2018-06-19T02:48:31.073Z,27.03
2018-06-19T02:50:59.201Z,36.30
2018-06-19T02:53:27.222Z,33.90
2018-06-19T02:55:55.209Z,30.10
2018-06-19T02:58:23.213Z,27.00
2018-06-19T03:00:51.209Z,30.30
2018-06-19T03:03:19.249Z,29.83
2018-06-19T03:05:47.284Z,33.40
2018-06-19T03:08:15.537Z,36.07
2018-06-19T03:10:43.678Z,34.87
2018-06-19T03:13:11.648Z,36.33
2018-06-19T03:15:39.663Z,42.13
2018-06-19T03:18:07.675Z,42.73
2018-06-19T03:20:35.708Z,40.50
2018-06-19T03:23:03.725Z,51.77
2018-06-19T03:25:31.741Z,68.80
2018-06-19T03:27:59.766Z,64.90
2018-06-19T03:30:27.841Z,61.90
2018-06-19T03:32:55.780Z,80.10
2018-06-19T03:35:23.793Z,46.23
2018-06-19T03:37:51.796Z,47.87
2018-06-19T03:40:19.810Z,38.60
2018-06-19T03:42:47.799Z,47.30
2018-06-19T03:45:15.800Z,33.97
2018-06-19T03:47:43.798Z,39.03
2018-06-19T03:50:11.864Z,32.27
2018-06-19T03:52:39.852Z,30.10
2018-06-19T03:55:07.880Z,31.50
2018-06-19T03:57:35.888Z,25.67
2018-06-19T04:00:04.907Z,29.82
2018-06-19T04:02:32.948Z,28.33
2018-06-19T04:05:00.996Z,28.33
2018-06-19T04:07:29.048Z,22.73
2018-06-19T04:09:57.113Z,30.33
2018-06-19T04:12:25.243Z,24.70
2018-06-19T04:14:53.292Z,24.97
2018-06-19T04:17:28.881Z,24.30
2018-06-19T04:19:57.912Z,26.70
2018-06-19T04:22:27.260Z,21.70
2018-06-19T04:24:55.461Z,26.33
2018-06-19T04:27:23.505Z,26.70
2018-06-19T04:29:51.573Z,20.30
2018-06-19T04:32:19.609Z,22.17
2018-06-19T04:34:47.803Z,24.67
2018-06-19T04:37:16.117Z,21.37
2018-06-19T04:39:44.129Z,22.27
2018-06-19T04:42:12.173Z,23.17
2018-06-19T04:44:40.166Z,25.80
2018-06-19T04:47:08.252Z,21.27
2018-06-19T04:49:37.499Z,20.03
2018-06-19T04:52:05.610Z,24.27
2018-06-19T04:54:33.705Z,19.37
2018-06-19T04:57:01.736Z,21.27
2018-06-19T04:59:29.728Z,20.13
2018-06-19T05:01:57.741Z,23.80
2018-06-19T05:04:25.752Z,25.77
2018-06-19T05:06:53.753Z,22.17
2018-06-19T05:09:21.754Z,20.13
2018-06-19T05:11:49.765Z,21.37
2018-06-19T05:14:17.989Z,28.27
2018-06-19T05:16:46.009Z,19.00
2018-06-19T05:19:14.033Z,20.10
2018-06-19T05:21:42.188Z,18.03
2018-06-19T05:24:10.230Z,17.50
2018-06-19T05:26:38.249Z,22.77
2018-06-19T05:29:06.288Z,17.33
2018-06-19T05:31:34.392Z,18.60
2018-06-19T05:34:02.380Z,18.77
2018-06-19T05:36:30.534Z,17.63
2018-06-19T05:38:58.537Z,16.63
2018-06-19T05:41:26.536Z,17.30
2018-06-19T05:43:54.581Z,15.90
2018-06-19T05:46:22.644Z,16.67
2018-06-19T05:48:50.623Z,15.50
2018-06-19T05:51:18.646Z,19.40
2018-06-19T05:53:46.671Z,21.33
2018-06-19T05:56:14.701Z,15.80
2018-06-19T05:58:42.701Z,14.97
2018-06-19T06:01:11.023Z,17.43
2018-06-19T06:03:39.084Z,14.77
2018-06-19T06:06:07.080Z,22.67
2018-06-19T06:08:35.157Z,18.00
2018-06-19T06:11:03.175Z,18.43
2018-06-19T06:13:31.269Z,15.60
2018-06-19T06:15:59.273Z,15.97
2018-06-19T06:18:27.331Z,13.67
2018-06-19T06:20:55.689Z,16.73
2018-06-19T06:23:23.701Z,21.83
2018-06-19T06:25:51.814Z,13.83
2018-06-19T06:28:19.803Z,13.00
2018-06-19T06:30:47.809Z,15.60
2018-06-19T06:33:15.810Z,24.33
2018-06-19T06:35:43.885Z,12.70
2018-06-19T06:38:11.897Z,13.00
2018-06-19T06:40:40.069Z,12.90
2018-06-19T06:43:08.089Z,11.50
2018-06-19T06:45:36.109Z,13.17
2018-06-19T06:48:04.580Z,24.33
2018-06-19T06:50:32.720Z,20.40
2018-06-19T06:53:00.629Z,17.47
2018-06-19T06:55:28.642Z,13.80
2018-06-19T06:57:57.461Z,15.10
2018-06-19T07:00:25.502Z,23.53
2018-06-19T07:02:53.512Z,13.27
2018-06-19T07:05:21.532Z,18.53
2018-06-19T07:07:49.569Z,12.83
2018-06-19T07:10:17.638Z,13.63
2018-06-19T07:12:45.737Z,12.80
2018-06-19T07:15:13.769Z,11.50
2018-06-19T07:17:41.808Z,13.03
2018-06-19T07:20:10.029Z,22.50
2018-06-19T07:22:38.048Z,14.40
2018-06-19T07:25:06.088Z,9.73
2018-06-19T07:27:34.113Z,12.93
2018-06-19T07:30:02.218Z,17.50
2018-06-19T07:32:30.289Z,25.33
2018-06-19T07:34:58.297Z,11.93
2018-06-19T07:37:26.325Z,10.50
2018-06-19T07:39:54.317Z,13.17
2018-06-19T07:42:22.368Z,15.90
2018-06-19T07:44:50.422Z,11.43
2018-06-19T07:47:18.457Z,8.60
2018-06-19T07:49:46.456Z,13.87
2018-06-19T07:52:14.482Z,11.30
2018-06-19T07:54:42.485Z,14.13
2018-06-19T07:57:10.499Z,12.47
2018-06-19T07:59:38.517Z,13.50
2018-06-19T08:02:06.540Z,9.73
2018-06-19T08:04:34.577Z,13.23
2018-06-19T08:07:06.784Z,16.43
2018-06-19T08:09:34.800Z,19.50
2018-06-19T08:12:03.037Z,11.30
2018-06-19T08:14:31.075Z,13.80
2018-06-19T08:16:59.232Z,16.17
2018-06-19T08:19:27.256Z,13.40
2018-06-19T08:21:55.264Z,23.03
2018-06-19T08:24:23.308Z,11.60
2018-06-19T08:26:51.341Z,14.73
2018-06-19T08:29:19.399Z,21.70
2018-06-19T08:31:47.419Z,11.75
2018-06-19T08:34:15.453Z,9.77
2018-06-19T08:36:43.541Z,11.33
2018-06-19T08:39:13.456Z,12.67
2018-06-19T08:41:42.461Z,17.23
2018-06-19T08:44:10.453Z,14.40
2018-06-19T08:46:39.811Z,14.93
2018-06-19T08:49:09.240Z,14.03
2018-06-19T08:51:37.393Z,14.50
2018-06-19T08:54:05.514Z,20.40
2018-06-19T08:56:34.141Z,14.03
2018-06-19T08:59:02.218Z,18.60
2018-06-19T09:01:30.276Z,18.83
2018-06-19T09:03:58.333Z,15.83
2018-06-19T09:06:26.392Z,22.20
2018-06-19T09:08:54.412Z,15.60
2018-06-19T09:11:22.454Z,8.90
2018-06-19T09:13:50.464Z,20.60
2018-06-19T09:16:18.826Z,17.13
2018-06-19T09:18:46.859Z,10.67
2018-06-19T09:21:14.833Z,14.30
2018-06-19T09:23:42.968Z,16.10
2018-06-19T09:26:10.962Z,15.10
2018-06-19T09:28:38.968Z,17.77
2018-06-19T09:31:07.054Z,15.57
2018-06-19T09:33:35.060Z,11.00
2018-06-19T09:36:03.083Z,12.90
2018-06-19T09:38:31.105Z,38.10
2018-06-19T09:40:59.135Z,19.20
2018-06-19T09:43:27.124Z,11.60
2018-06-19T09:45:55.131Z,10.87
2018-06-19T09:48:23.157Z,13.60
2018-06-19T09:50:51.190Z,14.67
2018-06-19T09:53:19.218Z,19.27
2018-06-19T09:55:47.335Z,8.60
2018-06-19T09:58:15.323Z,11.83
2018-06-19T10:00:43.537Z,15.43
2018-06-19T10:03:11.709Z,10.30
2018-06-19T10:05:39.773Z,9.90
2018-06-19T10:08:07.750Z,9.30
2018-06-19T10:10:35.771Z,10.10
2018-06-19T10:13:03.773Z,12.57
2018-06-19T10:15:31.777Z,8.37
2018-06-19T10:17:59.793Z,17.80
2018-06-19T10:20:27.802Z,8.17
2018-06-19T10:22:55.797Z,11.57
2018-06-19T10:25:23.835Z,16.80
2018-06-19T10:27:51.853Z,8.83
2018-06-19T10:30:19.847Z,7.63
2018-06-19T10:32:48.849Z,8.00
2018-06-19T10:35:16.871Z,8.37
2018-06-19T10:37:44.872Z,11.07
2018-06-19T10:40:12.916Z,10.90
2018-06-19T10:42:40.944Z,13.17
2018-06-19T10:45:08.952Z,14.17
2018-06-19T10:47:36.964Z,10.60
2018-06-19T10:50:04.965Z,13.80
2018-06-19T10:52:33.001Z,10.87
2018-06-19T10:55:01.041Z,11.53
2018-06-19T10:57:29.112Z,10.47
2018-06-19T10:59:57.131Z,9.93
2018-06-19T11:02:25.117Z,9.30
2018-06-19T11:04:53.142Z,9.17
2018-06-19T11:07:26.437Z,10.73
2018-06-19T11:09:54.448Z,9.40
2018-06-19T11:12:22.446Z,8.57
2018-06-19T11:14:50.518Z,8.37
2018-06-19T11:17:18.532Z,15.80
2018-06-19T11:19:46.662Z,8.97
2018-06-19T11:22:14.654Z,10.07
2018-06-19T11:24:42.832Z,13.00
2018-06-19T11:27:10.870Z,11.57
2018-06-19T11:29:38.897Z,7.40
2018-06-19T11:32:06.892Z,12.40
2018-06-19T11:34:35.104Z,8.80
2018-06-19T11:37:03.112Z,10.97
2018-06-19T11:39:31.134Z,8.97
2018-06-19T11:41:59.192Z,8.67
2018-06-19T11:44:27.229Z,10.77
2018-06-19T11:46:55.216Z,8.10
2018-06-19T11:49:23.273Z,7.40
2018-06-19T11:51:51.332Z,8.37
2018-06-19T11:54:19.434Z,9.27
2018-06-19T11:56:47.456Z,8.10
2018-06-19T11:59:15.431Z,8.50
2018-06-19T12:01:43.469Z,7.10
2018-06-19T12:04:11.439Z,7.10
2018-06-19T12:06:39.514Z,9.47
2018-06-19T12:09:08.204Z,7.53
2018-06-19T12:11:36.424Z,7.50
2018-06-19T12:14:04.504Z,8.37
2018-06-19T12:16:32.573Z,7.40
2018-06-19T12:19:00.614Z,7.73
2018-06-19T12:21:28.665Z,10.50
2018-06-19T12:23:56.682Z,9.03
2018-06-19T12:26:24.700Z,10.93
2018-06-19T12:28:52.951Z,7.70
2018-06-19T12:31:20.940Z,7.33
2018-06-19T12:33:48.948Z,8.60
2018-06-19T12:36:17.001Z,7.10
2018-06-19T12:38:45.288Z,7.60
2018-06-19T12:41:13.296Z,8.47
2018-06-19T12:43:41.307Z,19.23
2018-06-19T12:46:09.339Z,10.57
2018-06-19T12:48:37.461Z,8.60
2018-06-19T12:52:17.917Z,9.73
2018-06-19T12:55:13.738Z,8.83
2018-06-19T12:57:41.768Z,9.13
2018-06-19T13:00:09.849Z,10.07
2018-06-19T13:02:37.948Z,9.83
2018-06-19T13:05:17.487Z,8.83
2018-06-19T13:07:45.441Z,13.47
2018-06-19T13:10:14.068Z,9.87
2018-06-19T13:13:23.800Z,9.40
2018-06-19T13:15:52.884Z,10.60
2018-06-19T13:18:33.778Z,11.80
2018-06-19T13:21:01.785Z,11.47
2018-06-19T13:23:30.249Z,10.27
2018-06-19T13:25:58.391Z,9.10
2018-06-19T13:28:38.594Z,8.43
2018-06-19T13:31:18.217Z,10.77
2018-06-19T13:33:46.201Z,7.43
2018-06-19T13:36:14.533Z,10.10
2018-06-19T13:38:42.830Z,8.60
2018-06-19T13:41:23.589Z,11.00
2018-06-19T13:44:04.741Z,10.60
2018-06-19T13:46:32.736Z,9.30
2018-06-19T13:49:00.728Z,8.03
2018-06-19T13:51:28.862Z,8.13
2018-06-19T13:53:56.855Z,7.00
2018-06-19T13:57:08.660Z,9.07
2018-06-19T13:59:37.244Z,11.43
2018-06-19T14:02:05.393Z,9.10
2018-06-19T14:04:34.388Z,13.07
2018-06-19T14:07:03.288Z,12.50
2018-06-19T14:09:42.819Z,11.87
2018-06-19T14:12:24.544Z,10.67
2018-06-19T14:14:54.640Z,15.57
2018-06-19T14:17:23.257Z,9.87
2018-06-19T14:19:51.608Z,13.47
2018-06-19T14:22:19.613Z,14.60
2018-06-19T14:24:47.637Z,11.97
2018-06-19T14:27:15.728Z,17.90
2018-06-19T14:29:43.807Z,10.90
2018-06-19T14:32:11.797Z,13.17
2018-06-19T14:34:39.839Z,16.30
2018-06-19T14:37:07.833Z,18.07
2018-06-19T14:39:35.869Z,13.40
2018-06-19T14:42:03.888Z,9.10
2018-06-19T14:44:31.916Z,12.97
2018-06-19T14:47:00.001Z,8.00
2018-06-19T14:49:28.020Z,12.00
2018-06-19T14:51:56.080Z,10.27
2018-06-19T14:54:24.072Z,10.20
2018-06-19T14:56:52.093Z,9.43
2018-06-19T14:59:20.097Z,14.97
2018-06-19T15:01:48.157Z,12.53
2018-06-19T15:04:16.145Z,11.10
2018-06-19T15:06:44.156Z,9.43
2018-06-19T15:09:12.536Z,11.00
2018-06-19T15:11:41.378Z,11.10
2018-06-19T15:14:09.508Z,12.00
2018-06-19T15:16:37.490Z,13.30
2018-06-19T15:19:05.887Z,16.50
2018-06-19T15:21:34.020Z,25.53
2018-06-19T15:24:02.104Z,11.33
2018-06-19T15:26:30.128Z,15.57
2018-06-19T15:28:58.199Z,12.17
2018-06-19T15:31:26.236Z,14.53
2018-06-19T15:33:54.210Z,14.90
2018-06-19T15:36:22.253Z,10.63
2018-06-19T15:38:50.290Z,11.03
2018-06-19T15:41:18.312Z,9.63
2018-06-19T15:43:46.800Z,11.90
2018-06-19T15:46:14.853Z,13.60
2018-06-19T15:48:42.883Z,11.77
2018-06-19T15:51:10.905Z,13.27
2018-06-19T15:53:38.944Z,13.53
2018-06-19T15:56:06.996Z,13.40
2018-06-19T15:58:35.129Z,11.57
2018-06-19T16:01:03.147Z,12.20
2018-06-19T16:03:31.324Z,13.37
2018-06-19T16:05:59.337Z,11.07
2018-06-19T16:08:27.422Z,10.57
2018-06-19T16:10:55.460Z,10.10
2018-06-19T16:13:23.461Z,10.07
2018-06-19T16:15:51.471Z,10.40
2018-06-19T16:18:19.525Z,12.80
2018-06-19T16:20:47.591Z,9.97
2018-06-19T16:23:15.685Z,12.63
2018-06-19T16:25:43.732Z,10.50
2018-06-19T16:28:11.776Z,11.80
2018-06-19T16:30:39.781Z,11.47
2018-06-19T16:33:07.823Z,13.10
2018-06-19T16:35:36.118Z,11.30
2018-06-19T16:38:04.233Z,11.60
2018-06-19T16:40:32.230Z,18.33
2018-06-19T16:43:00.253Z,19.63
2018-06-19T16:45:28.489Z,21.50
2018-06-19T16:47:56.516Z,14.33
2018-06-19T16:50:24.543Z,11.13
2018-06-19T16:52:52.600Z,11.13
2018-06-19T16:55:20.582Z,10.23
2018-06-19T16:57:48.633Z,9.17
2018-06-19T17:00:16.638Z,12.10
2018-06-19T17:02:44.660Z,18.57
2018-06-19T17:05:12.681Z,9.73
2018-06-19T17:07:41.910Z,9.70
2018-06-19T17:10:10.504Z,11.30
2018-06-19T17:12:38.601Z,12.33
2018-06-19T17:15:06.637Z,9.73
2018-06-19T17:17:34.693Z,10.60
2018-06-19T17:20:02.793Z,9.07
2018-06-19T17:22:30.820Z,10.30
2018-06-19T17:24:58.832Z,8.60
2018-06-19T17:27:26.897Z,7.40
2018-06-19T17:29:54.952Z,7.20
2018-06-19T17:32:22.921Z,13.47
2018-06-19T17:34:50.972Z,9.60
2018-06-19T17:37:19.140Z,7.60
2018-06-19T17:39:47.138Z,8.73
2018-06-19T17:42:15.155Z,7.50
2018-06-19T17:44:43.183Z,10.40
2018-06-19T17:47:11.185Z,6.83
2018-06-19T17:49:39.311Z,6.87
2018-06-19T17:52:07.532Z,6.93
2018-06-19T17:54:35.558Z,7.47
2018-06-19T17:57:03.586Z,6.90
2018-06-19T17:59:31.604Z,6.87
2018-06-19T18:01:59.735Z,8.07
2018-06-19T18:04:27.836Z,7.60
2018-06-19T18:06:55.853Z,5.13
2018-06-19T18:09:23.978Z,7.23
2018-06-19T18:11:52.014Z,12.13
2018-06-19T18:14:20.121Z,5.03
2018-06-19T18:16:48.187Z,5.40
2018-06-19T18:19:16.349Z,5.93
2018-06-19T18:21:44.371Z,5.37
2018-06-19T18:24:12.547Z,4.87
2018-06-19T18:26:40.585Z,6.83
2018-06-19T18:29:08.608Z,6.07
2018-06-19T18:31:36.609Z,9.90
2018-06-19T18:34:04.599Z,7.43
2018-06-19T18:36:32.642Z,8.83
2018-06-19T18:39:00.825Z,8.43
2018-06-19T18:41:29.013Z,7.60
2018-06-19T18:43:57.121Z,5.40
2018-06-19T18:46:25.168Z,5.53
2018-06-19T18:48:53.244Z,5.53
2018-06-19T18:51:21.327Z,5.30
2018-06-19T18:53:49.337Z,6.10
2018-06-19T18:56:17.441Z,8.03
2018-06-19T18:58:45.476Z,10.17
2018-06-19T19:01:13.473Z,6.07
2018-06-19T19:03:44.189Z,8.97
2018-06-19T19:06:12.224Z,6.80
2018-06-19T19:08:40.216Z,8.70
2018-06-19T19:11:08.313Z,9.17
2018-06-19T19:13:36.326Z,10.73
2018-06-19T19:16:09.879Z,9.47
2018-06-19T19:18:43.255Z,10.87
2018-06-19T19:21:11.290Z,12.60
2018-06-19T19:23:39.388Z,14.53
2018-06-19T19:26:07.316Z,9.23
2018-06-19T19:28:40.814Z,12.33
2018-06-19T19:31:08.806Z,12.83
2018-06-19T19:33:36.797Z,10.97
2018-06-19T19:36:04.903Z,9.97
2018-06-19T19:38:38.425Z,9.07
2018-06-19T19:41:06.436Z,10.33
2018-06-19T19:43:34.454Z,9.87
2018-06-19T19:46:02.438Z,9.07
2018-06-19T19:48:35.793Z,10.93
2018-06-19T19:51:03.953Z,9.30
2018-06-19T19:53:31.973Z,7.80
2018-06-19T19:56:05.305Z,11.07
2018-06-19T19:58:38.808Z,8.87
2018-06-19T20:01:06.875Z,8.80
2018-06-19T20:03:35.130Z,8.67
2018-06-19T20:06:03.164Z,10.13
2018-06-19T20:08:31.160Z,10.33
2018-06-19T20:10:59.173Z,12.67
2018-06-19T20:13:27.213Z,9.10
2018-06-19T20:15:55.234Z,9.40
2018-06-19T20:18:23.253Z,10.43
2018-06-19T20:20:51.904Z,12.60
2018-06-19T20:23:20.071Z,16.07
2018-06-19T20:25:48.068Z,9.30
2018-06-19T20:28:16.108Z,10.17
2018-06-19T20:30:44.134Z,8.27
2018-06-19T20:33:12.234Z,9.63
2018-06-19T20:35:40.243Z,9.10
2018-06-19T20:38:08.272Z,10.23
2018-06-19T20:40:36.320Z,8.70
2018-06-19T20:43:04.319Z,5.93
2018-06-19T20:45:32.317Z,7.63
2018-06-19T20:48:00.558Z,7.63
2018-06-19T20:50:28.664Z,7.23
2018-06-19T20:52:56.652Z,10.43
2018-06-19T20:55:24.765Z,15.23
2018-06-19T20:57:53.569Z,4.50
2018-06-19T21:00:21.592Z,6.87
2018-06-19T21:02:49.630Z,4.40
2018-06-19T21:05:17.656Z,8.83
2018-06-19T21:07:45.706Z,4.73
2018-06-19T21:10:13.705Z,8.50
2018-06-19T21:12:42.908Z,3.20
2018-06-19T21:15:10.930Z,6.97
2018-06-19T21:17:38.923Z,5.50
2018-06-19T21:20:07.045Z,8.67
2018-06-19T21:22:35.034Z,3.67
2018-06-19T21:25:03.064Z,5.40
2018-06-19T21:27:31.641Z,7.93
2018-06-19T21:29:59.687Z,7.00
2018-06-19T21:32:27.723Z,6.30
2018-06-19T21:34:55.720Z,7.37
2018-06-19T21:37:23.730Z,5.37
2018-06-19T21:39:51.777Z,8.60
2018-06-19T21:42:19.779Z,5.07
2018-06-19T21:44:47.848Z,5.60
2018-06-19T21:47:15.866Z,14.77
2018-06-19T21:49:43.864Z,14.00
2018-06-19T21:52:11.849Z,7.20
2018-06-19T21:54:39.904Z,9.50
2018-06-19T21:57:08.003Z,6.03
2018-06-19T21:59:35.993Z,3.60
2018-06-19T22:02:04.005Z,7.83
2018-06-19T22:04:31.989Z,7.77
2018-06-19T22:07:00.010Z,8.10
2018-06-19T22:09:27.998Z,5.20
2018-06-19T22:11:55.997Z,11.27
2018-06-19T22:14:23.973Z,7.13
2018-06-19T22:16:52.041Z,4.20
2018-06-19T22:19:20.080Z,7.47
2018-06-19T22:21:48.093Z,6.90
2018-06-19T22:24:16.128Z,4.10
2018-06-19T22:26:44.221Z,7.80
2018-06-19T22:29:12.309Z,3.70
2018-06-19T22:31:40.288Z,3.70
2018-06-19T22:34:08.349Z,6.47
2018-06-19T22:36:36.344Z,6.40
2018-06-19T22:39:06.441Z,5.63
2018-06-19T22:41:34.444Z,6.20
2018-06-19T22:44:02.584Z,6.53
2018-06-19T22:46:30.573Z,3.20
2018-06-19T22:48:58.576Z,7.07
2018-06-19T22:51:26.697Z,6.37
2018-06-19T22:53:54.685Z,6.70
2018-06-19T22:56:22.688Z,17.47
2018-06-19T22:58:50.701Z,10.97
2018-06-19T23:01:18.703Z,2.90
2018-06-19T23:03:46.713Z,6.30
2018-06-19T23:06:14.736Z,3.90
2018-06-19T23:08:42.767Z,5.23
2018-06-19T23:11:10.763Z,6.27
2018-06-19T23:13:38.771Z,5.50
2018-06-19T23:16:06.829Z,6.10
2018-06-19T23:18:34.823Z,12.13
2018-06-19T23:21:02.809Z,8.27
2018-06-19T23:23:30.800Z,7.00
2018-06-19T23:25:58.833Z,8.10
2018-06-19T23:28:26.854Z,7.70
2018-06-19T23:30:54.864Z,6.27
2018-06-19T23:33:22.868Z,12.20
2018-06-19T23:35:51.344Z,8.63
2018-06-19T23:38:19.353Z,4.90
2018-06-19T23:40:47.384Z,5.13
2018-06-19T23:43:15.380Z,6.93
2018-06-19T23:45:43.545Z,8.70
2018-06-19T23:48:11.512Z,5.00
2018-06-19T23:50:39.543Z,6.43
2018-06-19T23:53:07.546Z,8.63
2018-06-19T23:55:35.637Z,5.70
2018-06-19T23:58:03.633Z,8.40
